Time;durP1;ratioP1;P1;durP2;ratioP2;P2;SDS_P1;SDS_P2;PMS_P1;PMS_P2;Temp;Humidity;BMP_temperature;BMP_pressure;BME280_temperature;BME280_humidity;BME280_pressure;Samples;Min_cycle;Max_cycle;Signal;HPM_P1;HPM_P2
2021/01/23 00:01:59;;;;;;;1.23;0.73;;;;;;;3.63;94.44;94346.59;5093122;28;20172;-57
2021/01/23 00:04:24;;;;;;;0.80;0.80;;;;;;;3.75;94.72;94333.59;5092292;28;20178;-56
2021/01/23 00:06:50;;;;;;;1.00;1.00;;;;;;;3.91;94.12;94340.59;5084035;28;20522;-57
2021/01/23 00:09:15;;;;;;;1.10;1.10;;;;;;;3.73;94.05;94349.38;5093168;28;20198;-57
2021/01/23 00:11:40;;;;;;;1.10;1.10;;;;;;;3.92;94.92;94355.16;5092880;28;20203;-56
2021/01/23 00:14:06;;;;;;;0.97;0.97;;;;;;;4.05;94.03;94358.25;5092620;28;20173;-57
2021/01/23 00:16:31;;;;;;;1.00;1.00;;;;;;;3.99;93.71;94364.38;5092589;28;20564;-57
2021/01/23 00:18:56;;;;;;;1.03;1.03;;;;;;;3.88;94.23;94370.41;5092948;28;20227;-57
2021/01/23 00:21:22;;;;;;;1.10;1.10;;;;;;;4.08;93.79;94364.78;5081802;28;20182;-57
2021/01/23 00:23:47;;;;;;;1.00;1.00;;;;;;;3.68;94.14;94370.06;5072319;28;20663;-57
2021/01/23 00:26:12;;;;;;;1.17;1.17;;;;;;;3.62;94.83;94373.59;5072715;28;20243;-57
2021/01/23 00:28:38;;;;;;;1.10;1.10;;;;;;;3.74;94.91;94374.31;5076214;28;20201;-56
2021/01/23 00:31:04;;;;;;;0.83;0.83;;;;;;;3.55;95.20;94372.91;5092567;28;20190;-56
2021/01/23 00:33:29;;;;;;;1.30;1.30;;;;;;;3.81;94.50;94387.16;5092534;28;20670;-57
2021/01/23 00:35:54;;;;;;;1.20;1.20;;;;;;;3.85;94.33;94391.66;5084010;28;20216;-57
2021/01/23 00:38:20;;;;;;;1.20;1.20;;;;;;;3.57;95.93;94383.88;5072571;28;20567;-57
2021/01/23 00:40:45;;;;;;;1.50;1.40;;;;;;;3.61;96.08;94391.97;5083615;28;20171;-57
2021/01/23 00:43:11;;;;;;;1.57;1.47;;;;;;;3.79;95.21;94384.00;5092512;28;20177;-57
2021/01/23 00:45:36;;;;;;;1.00;1.00;;;;;;;3.88;94.17;94393.78;5093174;28;20189;-57
2021/01/23 00:48:11;;;;;;;1.30;1.20;;;;;;;3.65;95.38;94396.50;5092620;28;20668;-56
2021/01/23 00:50:37;;;;;;;0.97;0.97;;;;;;;3.70;95.70;94395.78;5073058;28;20201;-57
2021/01/23 00:53:03;;;;;;;1.30;1.20;;;;;;;3.63;95.86;94395.13;5090104;28;20476;-57
2021/01/23 00:55:28;;;;;;;1.27;1.20;;;;;;;3.69;96.12;94402.00;5089989;28;20175;-57
2021/01/23 00:57:53;;;;;;;1.00;1.00;;;;;;;3.81;95.06;94407.94;5076119;28;20198;-57
2021/01/23 01:00:19;;;;;;;1.17;1.17;;;;;;;3.77;95.20;94410.22;5092497;28;20204;-57
2021/01/23 01:02:44;;;;;;;1.57;1.47;;;;;;;3.89;94.80;94400.59;5095400;28;20173;-57
2021/01/23 01:05:10;;;;;;;1.40;1.30;;;;;;;3.80;95.14;94409.75;5096318;28;20172;-57
2021/01/23 01:07:36;;;;;;;1.70;1.60;;;;;;;4.07;93.96;94412.56;5096442;28;20191;-57
2021/01/23 01:10:02;;;;;;;1.30;1.30;;;;;;;4.17;92.92;94416.13;5095582;28;20182;-56
2021/01/23 01:12:28;;;;;;;1.10;1.10;;;;;;;4.08;92.91;94419.34;5095881;28;20209;-57
2021/01/23 01:14:53;;;;;;;1.67;1.57;;;;;;;4.15;92.95;94425.16;5096188;28;20498;-57
2021/01/23 01:17:18;;;;;;;2.00;1.90;;;;;;;4.16;92.67;94442.34;5095701;28;20552;-56
2021/01/23 01:19:44;;;;;;;2.00;1.90;;;;;;;3.85;93.32;94442.81;5079316;28;20232;-57
2021/01/23 01:22:09;;;;;;;1.90;1.80;;;;;;;3.95;94.02;94448.22;5075732;28;20174;-57
2021/01/23 01:24:35;;;;;;;1.80;1.70;;;;;;;4.22;92.38;94449.22;5075419;28;20185;-57
2021/01/23 01:27:00;;;;;;;1.87;1.77;;;;;;;4.14;92.33;94445.19;5079253;28;20221;-57
2021/01/23 01:29:25;;;;;;;1.60;1.50;;;;;;;4.07;92.48;94449.75;5095190;28;20185;-57
2021/01/23 01:31:51;;;;;;;1.73;1.63;;;;;;;3.97;92.66;94462.53;5095839;28;20208;-57
2021/01/23 01:34:16;;;;;;;1.50;1.40;;;;;;;3.87;93.54;94458.97;5094822;28;20185;-56
2021/01/23 01:36:42;;;;;;;1.80;1.70;;;;;;;3.97;94.04;94467.72;5095197;28;20639;-57
2021/01/23 01:39:07;;;;;;;2.83;2.43;;;;;;;3.94;93.90;94467.41;5095199;28;20204;-57
2021/01/23 01:41:38;;;;;;;1.80;1.70;;;;;;;3.99;93.90;94480.47;5095531;28;20573;-57
2021/01/23 01:44:05;;;;;;;2.10;2.00;;;;;;;4.04;94.32;94486.56;5094260;28;20204;-57
2021/01/23 01:46:31;;;;;;;1.80;1.70;;;;;;;3.87;93.96;94497.91;5095565;28;20794;-57
2021/01/23 01:48:59;;;;;;;1.70;1.60;;;;;;;3.98;92.74;94494.50;5089933;28;20960;-58
2021/01/23 01:51:25;;;;;;;1.63;1.53;;;;;;;3.69;94.56;94505.88;5089913;28;20189;-57
2021/01/23 01:53:52;;;;;;;1.30;1.27;;;;;;;3.68;94.74;94506.88;5094996;28;20495;-57
2021/01/23 01:56:17;;;;;;;1.50;1.40;;;;;;;3.73;94.90;94505.16;5094466;28;20192;-57
2021/01/23 01:58:43;;;;;;;1.23;1.23;;;;;;;3.64;94.90;94509.13;5094692;28;20443;-57
2021/01/23 02:01:08;;;;;;;1.40;1.30;;;;;;;3.62;95.12;94523.38;5095377;28;20177;-57
2021/01/23 02:03:58;;;;;;;1.60;1.50;;;;;;;3.80;94.75;94511.03;5094034;28;20631;-57
2021/01/23 02:06:53;;;;;;;1.30;1.30;;;;;;;3.77;94.67;94519.28;5093244;28;20177;-56
2021/01/23 02:09:48;;;;;;;2.03;1.80;;;;;;;3.72;94.59;94518.38;5094840;28;20460;-57
2021/01/23 02:12:32;;;;;;;1.23;1.23;;;;;;;3.65;95.23;94523.72;5094997;28;21000;-57
2021/01/23 02:15:24;;;;;;;1.40;1.30;;;;;;;3.60;95.67;94525.41;5094646;28;20584;-57
2021/01/23 02:18:11;;;;;;;1.70;1.60;;;;;;;3.42;96.15;94541.09;5075356;28;20462;-57
2021/01/23 02:20:56;;;;;;;1.50;1.40;;;;;;;3.48;96.14;94540.22;5092839;28;20422;-57
2021/01/23 02:23:30;;;;;;;1.33;1.33;;;;;;;3.65;95.88;94551.47;5074661;28;20416;-57
2021/01/23 02:26:01;;;;;;;1.50;1.40;;;;;;;3.64;95.46;94555.88;5087251;28;20415;-57
2021/01/23 02:28:54;;;;;;;1.47;1.37;;;;;;;3.54;95.75;94560.84;5092893;28;20456;-56
2021/01/23 02:31:22;;;;;;;1.20;1.20;;;;;;;3.47;96.61;94554.19;5094145;28;20436;-57
2021/01/23 02:33:52;;;;;;;1.47;1.37;;;;;;;3.52;95.66;94557.69;5093773;28;20434;-57
2021/01/23 02:36:23;;;;;;;1.27;1.17;;;;;;;3.51;95.97;94561.31;5094222;28;20519;-57
2021/01/23 02:38:51;;;;;;;0.90;0.90;;;;;;;3.57;95.86;94570.78;5076043;28;20448;-57
2021/01/23 02:41:17;;;;;;;1.27;1.17;;;;;;;3.69;95.71;94574.16;5083747;28;20424;-57
2021/01/23 02:43:43;;;;;;;1.30;1.30;;;;;;;3.93;95.00;94578.28;5094069;28;20885;-58
2021/01/23 02:46:10;;;;;;;0.83;0.83;;;;;;;3.76;94.74;94584.41;5077714;28;20547;-57
2021/01/23 02:48:37;;;;;;;1.13;1.03;;;;;;;3.64;96.07;94594.03;5075853;28;20458;-57
2021/01/23 02:51:08;;;;;;;1.10;1.10;;;;;;;3.54;96.09;94593.78;5094048;28;20426;-57
2021/01/23 02:53:35;;;;;;;1.47;1.47;;;;;;;3.56;96.31;94607.34;5094043;28;20959;-57
2021/01/23 02:56:08;;;;;;;1.03;1.03;;;;;;;3.43;96.45;94600.56;5094101;28;20422;-57
2021/01/23 02:58:34;;;;;;;1.23;1.23;;;;;;;3.54;96.24;94599.00;5093401;28;20865;-57
2021/01/23 03:01:02;;;;;;;1.27;1.27;;;;;;;3.49;96.88;94594.50;5093879;28;20981;-57
2021/01/23 03:03:30;;;;;;;1.40;1.40;;;;;;;3.54;96.49;94599.00;5093314;28;20422;-58
2021/01/23 03:05:55;;;;;;;1.37;1.37;;;;;;;3.58;95.96;94594.94;5093132;28;20420;-57
2021/01/23 03:08:21;;;;;;;1.83;1.73;;;;;;;3.41;96.89;94607.00;5093797;28;20512;-57
2021/01/23 03:10:47;;;;;;;1.77;1.67;;;;;;;3.29;97.64;94624.34;5075620;28;20875;-57
2021/01/23 03:13:14;;;;;;;1.70;1.60;;;;;;;3.51;97.13;94623.59;5092921;28;20203;-57
2021/01/23 03:15:43;;;;;;;1.80;1.70;;;;;;;3.57;96.79;94632.31;5093573;28;20420;-57
2021/01/23 03:18:09;;;;;;;2.40;2.30;;;;;;;3.64;96.08;94638.19;5093680;28;20481;-57
2021/01/23 03:20:34;;;;;;;2.00;1.90;;;;;;;3.58;96.57;94634.66;5091829;28;20484;-58
2021/01/23 03:23:01;;;;;;;2.07;1.97;;;;;;;3.58;96.42;94637.25;5093244;28;20410;-57
2021/01/23 03:25:27;;;;;;;2.67;2.57;;;;;;;3.55;96.82;94640.28;5078395;28;20637;-57
2021/01/23 03:27:58;;;;;;;2.57;2.47;;;;;;;3.57;96.77;94637.50;5073344;28;20952;-57
2021/01/23 03:30:28;;;;;;;2.00;1.90;;;;;;;3.55;96.75;94642.13;5085081;28;20795;-57
2021/01/23 03:32:54;;;;;;;1.90;1.80;;;;;;;3.38;97.13;94646.38;5092726;28;20485;-57
2021/01/23 03:35:21;;;;;;;2.23;2.03;;;;;;;3.37;97.66;94650.75;5093690;28;20929;-57
2021/01/23 03:37:47;;;;;;;2.00;1.90;;;;;;;3.21;98.49;94651.41;5092990;28;20964;-57
2021/01/23 03:40:13;;;;;;;1.97;1.87;;;;;;;3.15;98.38;94655.69;5091936;28;20430;-57
2021/01/23 03:42:39;;;;;;;2.30;2.10;;;;;;;3.23;98.65;94661.56;5109422;28;20417;-57
2021/01/23 03:45:06;;;;;;;2.40;2.20;;;;;;;3.36;98.29;94656.97;5089586;28;20422;-57
2021/01/23 03:47:32;;;;;;;2.23;2.03;;;;;;;3.32;97.93;94655.84;5093574;28;20250;-57
2021/01/23 03:49:57;;;;;;;1.80;1.70;;;;;;;2.92;99.41;94666.00;5093143;28;20418;-57
2021/01/23 03:52:23;;;;;;;2.57;2.37;;;;;;;3.12;99.51;94665.72;5092931;28;20341;-57
2021/01/23 03:54:48;;;;;;;1.90;1.80;;;;;;;2.88;99.99;94683.00;5093332;28;20179;-56
2021/01/23 03:57:14;;;;;;;2.00;1.80;;;;;;;2.75;100.00;94678.00;5093534;28;20198;-57
2021/01/23 03:59:39;;;;;;;2.13;2.03;;;;;;;2.94;100.00;94689.09;5087600;28;20178;-57
2021/01/23 04:02:04;;;;;;;1.53;1.43;;;;;;;3.07;99.87;94687.16;5093295;28;20175;-57
2021/01/23 04:04:30;;;;;;;1.90;1.80;;;;;;;3.28;98.69;94688.44;5081519;28;20556;-57
2021/01/23 04:06:56;;;;;;;2.00;1.90;;;;;;;3.05;99.45;94694.34;5076685;28;20202;-57
2021/01/23 04:09:22;;;;;;;2.30;2.03;;;;;;;3.10;99.54;94691.88;5093400;28;20194;-57
2021/01/23 04:11:47;;;;;;;1.50;1.40;;;;;;;2.91;100.00;94705.13;5093004;28;20460;-57
2021/01/23 04:14:13;;;;;;;2.20;1.57;;;;;;;2.86;100.00;94697.22;5092714;28;20176;-57
2021/01/23 04:16:38;;;;;;;2.57;1.97;;;;;;;2.95;100.00;94701.84;5093299;28;20584;-57
2021/01/23 04:19:05;;;;;;;1.80;1.70;;;;;;;3.05;99.60;94703.94;5073193;28;20241;-57
2021/01/23 04:21:31;;;;;;;1.90;1.77;;;;;;;3.18;99.06;94701.16;5093024;28;20174;-57
2021/01/23 04:23:56;;;;;;;2.17;1.97;;;;;;;3.19;98.47;94707.91;5092702;28;20849;-57
2021/01/23 04:26:22;;;;;;;1.50;1.40;;;;;;;3.12;98.32;94708.03;5095932;28;20919;-57
2021/01/23 04:28:47;;;;;;;1.83;1.67;;;;;;;3.15;98.15;94709.41;5096910;28;20286;-57
2021/01/23 04:31:13;;;;;;;1.73;1.63;;;;;;;3.28;98.26;94704.00;5097001;28;20181;-56
2021/01/23 04:33:38;;;;;;;2.07;1.80;;;;;;;3.25;97.88;94704.44;5095865;28;20201;-56
2021/01/23 04:36:05;;;;;;;2.10;1.90;;;;;;;3.28;97.57;94693.63;5096576;28;20183;-57
2021/01/23 04:38:31;;;;;;;2.30;2.10;;;;;;;3.26;97.20;94698.25;5096816;28;20203;-58
2021/01/23 04:40:57;;;;;;;2.40;2.00;;;;;;;3.37;97.67;94699.31;5096885;28;20404;-57
2021/01/23 04:43:24;;;;;;;2.50;2.30;;;;;;;3.48;96.46;94698.53;5096697;28;20403;-57
2021/01/23 04:45:50;;;;;;;2.80;2.60;;;;;;;3.58;95.84;94696.19;5078665;28;20420;-57
2021/01/23 04:48:19;;;;;;;2.47;2.27;;;;;;;3.53;95.86;94694.25;5096344;28;20541;-57
2021/01/23 04:50:47;;;;;;;4.07;2.30;;;;;;;3.64;95.81;94687.50;5096334;28;20174;-57
2021/01/23 04:53:13;;;;;;;2.80;2.60;;;;;;;3.64;94.82;94685.69;5096385;28;20938;-57
2021/01/23 04:55:39;;;;;;;4.23;2.77;;;;;;;3.65;95.35;94692.47;5096582;28;20848;-57
2021/01/23 04:58:04;;;;;;;2.40;2.20;;;;;;;3.60;94.69;94699.34;5078108;28;20438;-57
2021/01/23 05:00:30;;;;;;;5.90;2.70;;;;;;;3.56;95.72;94695.59;5076179;28;20235;-56
2021/01/23 05:03:03;;;;;;;3.07;2.87;;;;;;;3.63;95.58;94691.09;5075946;28;20181;-57
2021/01/23 05:05:29;;;;;;;3.37;3.03;;;;;;;3.67;94.71;94687.84;5066403;28;20177;-57
2021/01/23 05:08:11;;;;;;;3.37;3.10;;;;;;;3.67;94.80;94687.84;5090292;28;20449;-57
2021/01/23 05:10:40;;;;;;;2.00;1.90;;;;;;;3.66;94.48;94691.44;5076206;28;20418;-57
2021/01/23 05:13:13;;;;;;;2.27;2.17;;;;;;;3.85;94.72;94684.34;5080941;28;20485;-57
2021/01/23 05:15:44;;;;;;;2.20;2.03;;;;;;;3.70;94.50;94691.78;5096304;28;20402;-57
2021/01/23 05:18:11;;;;;;;2.20;2.10;;;;;;;3.62;94.86;94684.34;5095770;28;20442;-56
2021/01/23 05:20:37;;;;;;;4.60;2.30;;;;;;;3.56;95.07;94685.22;5095843;28;20412;-56
2021/01/23 05:23:12;;;;;;;2.73;2.50;;;;;;;3.53;95.38;94686.47;5087314;28;20464;-58
2021/01/23 05:25:39;;;;;;;2.33;2.13;;;;;;;3.44;95.96;94689.59;5092026;28;20422;-57
2021/01/23 05:28:06;;;;;;;2.50;2.30;;;;;;;3.44;95.71;94693.00;5086500;28;20957;-57
2021/01/23 05:30:43;;;;;;;4.63;2.30;;;;;;;3.48;95.55;94691.53;5075654;28;20908;-57
2021/01/23 05:33:17;;;;;;;1.97;1.87;;;;;;;3.41;95.36;94703.81;5082838;28;20544;-57
2021/01/23 05:35:44;;;;;;;2.10;2.00;;;;;;;3.21;96.42;94702.53;5096062;28;20913;-57
2021/01/23 05:38:34;;;;;;;2.37;2.17;;;;;;;3.38;95.60;94703.47;5094940;28;20435;-57
2021/01/23 05:41:06;;;;;;;2.20;2.10;;;;;;;3.30;96.18;94707.16;5095981;28;20406;-57
2021/01/23 05:43:37;;;;;;;2.07;1.97;;;;;;;3.39;95.58;94716.22;5093719;28;20417;-57
2021/01/23 05:46:10;;;;;;;2.10;1.90;;;;;;;3.37;95.50;94720.06;5095348;28;20410;-57
2021/01/23 05:48:39;;;;;;;4.93;1.80;;;;;;;3.16;96.38;94721.34;5075702;28;20595;-57
2021/01/23 05:51:05;;;;;;;2.00;1.80;;;;;;;3.32;95.34;94715.53;5075267;28;20418;-57
2021/01/23 05:53:31;;;;;;;3.03;2.80;;;;;;;3.25;95.67;94730.41;5075003;28;20541;-57
2021/01/23 05:55:59;;;;;;;1.97;1.87;;;;;;;3.29;95.87;94715.97;5075324;28;20626;-57
2021/01/23 05:58:25;;;;;;;1.90;1.80;;;;;;;3.28;95.68;94713.59;5076384;28;20426;-55
2021/01/23 06:00:53;;;;;;;2.60;2.40;;;;;;;3.25;95.76;94701.84;5095387;28;20419;-56
2021/01/23 06:03:19;;;;;;;2.70;2.50;;;;;;;3.09;96.23;94712.88;5093282;28;20429;-57
2021/01/23 06:05:45;;;;;;;2.60;2.40;;;;;;;3.09;97.20;94705.06;5095175;28;20498;-57
2021/01/23 06:08:11;;;;;;;2.30;2.10;;;;;;;2.89;97.50;94702.75;5080711;28;20323;-57
2021/01/23 06:10:38;;;;;;;2.27;2.03;;;;;;;2.80;98.30;94705.84;5075103;28;20175;-57
2021/01/23 06:13:05;;;;;;;2.50;2.40;;;;;;;3.13;97.09;94708.81;5076824;28;20453;-56
2021/01/23 06:15:40;;;;;;;2.20;2.00;;;;;;;3.09;96.98;94707.66;5094922;28;20405;-57
2021/01/23 06:18:08;;;;;;;2.77;2.53;;;;;;;2.87;97.03;94715.13;5094528;28;20433;-57
2021/01/23 06:20:39;;;;;;;2.20;2.00;;;;;;;2.83;97.43;94708.81;5094879;28;20486;-57
2021/01/23 06:23:05;;;;;;;2.63;2.43;;;;;;;3.00;97.35;94696.03;5092888;28;20482;-57
2021/01/23 06:25:51;;;;;;;2.33;2.13;;;;;;;2.71;97.59;94699.38;5094945;28;20801;-57
2021/01/23 06:28:17;;;;;;;2.50;2.30;;;;;;;2.77;98.41;94698.53;5070951;28;20209;-56
2021/01/23 06:30:43;;;;;;;2.50;2.30;;;;;;;2.80;98.09;94706.66;5094624;28;20421;-57
2021/01/23 06:33:23;;;;;;;2.40;2.20;;;;;;;2.82;98.09;94702.03;5094221;28;20227;-58
2021/01/23 06:36:10;;;;;;;2.83;2.63;;;;;;;2.78;98.78;94713.84;5094942;28;20206;-57
2021/01/23 06:38:37;;;;;;;2.63;2.43;;;;;;;2.77;98.18;94707.06;5094748;28;20450;-57
2021/01/23 06:41:24;;;;;;;2.67;2.47;;;;;;;2.95;97.85;94707.03;5094295;28;20412;-56
2021/01/23 06:44:08;;;;;;;3.50;3.10;;;;;;;2.85;97.14;94706.78;5076558;28;20804;-57
2021/01/23 06:46:35;;;;;;;2.33;2.17;;;;;;;2.77;98.00;94704.47;5089345;28;20475;-57
2021/01/23 06:49:05;;;;;;;3.40;3.10;;;;;;;2.80;97.93;94704.06;5073265;28;20522;-57
2021/01/23 06:51:31;;;;;;;3.50;3.20;;;;;;;2.82;97.61;94704.63;5074184;28;20470;-57
2021/01/23 06:54:16;;;;;;;2.90;2.70;;;;;;;2.70;98.24;94697.81;5073847;28;20412;-57
2021/01/23 06:56:49;;;;;;;4.20;3.07;;;;;;;2.52;99.62;94705.63;5074024;28;20543;-57
2021/01/23 06:59:34;;;;;;;4.10;3.80;;;;;;;2.37;100.00;94705.16;5084384;28;20452;-56
2021/01/23 07:02:12;;;;;;;2.37;2.27;;;;;;;2.21;100.00;94700.56;5092820;28;20435;-57
2021/01/23 07:04:46;;;;;;;6.00;5.40;;;;;;;2.29;100.00;94710.63;5093635;28;20440;-57
2021/01/23 07:07:12;;;;;;;3.17;2.97;;;;;;;2.50;100.00;94712.81;5081413;28;20429;-56
2021/01/23 07:09:49;;;;;;;4.87;4.37;;;;;;;2.40;100.00;94713.31;5073953;28;20425;-57
2021/01/23 07:12:40;;;;;;;3.70;3.40;;;;;;;2.40;100.00;94715.09;5078518;28;20489;-57
2021/01/23 07:15:08;;;;;;;5.73;3.83;;;;;;;2.59;100.00;94711.50;5094111;28;20504;-57
2021/01/23 07:17:42;;;;;;;3.63;2.60;;;;;;;2.33;100.00;94719.56;5074819;28;20462;-57
2021/01/23 07:20:10;;;;;;;6.57;3.53;;;;;;;2.52;100.00;94708.97;5094066;28;20416;-57
2021/01/23 07:22:36;;;;;;;4.70;4.00;;;;;;;2.50;100.00;94711.00;5076393;28;20422;-57
2021/01/23 07:25:04;;;;;;;6.07;5.50;;;;;;;2.59;99.43;94709.69;5073922;28;20408;-57
2021/01/23 07:27:30;;;;;;;5.80;3.90;;;;;;;2.48;100.00;94701.88;5090248;28;20441;-57
2021/01/23 07:29:55;;;;;;;3.97;3.10;;;;;;;2.44;100.00;94709.28;5085253;28;20443;-57
2021/01/23 07:32:21;;;;;;;3.40;3.10;;;;;;;2.46;100.00;94714.25;5089088;28;20551;-57
2021/01/23 07:34:59;;;;;;;4.00;3.50;;;;;;;2.48;99.83;94712.22;5093433;28;20173;-57
2021/01/23 07:37:47;;;;;;;5.17;4.20;;;;;;;2.41;100.00;94711.50;5093439;28;20195;-56
2021/01/23 07:40:19;;;;;;;6.40;5.03;;;;;;;2.44;100.00;94711.06;5093569;28;20419;-58
2021/01/23 07:42:45;;;;;;;4.70;4.30;;;;;;;2.57;99.80;94709.13;5092400;28;20418;-58
2021/01/23 07:45:12;;;;;;;7.20;5.57;;;;;;;2.66;99.35;94710.44;5093543;28;20418;-58
2021/01/23 07:47:39;;;;;;;4.97;3.70;;;;;;;2.43;99.47;94718.03;5093316;28;20276;-57
2021/01/23 07:50:08;;;;;;;5.80;4.83;;;;;;;2.56;99.39;94717.91;5093644;28;20407;-58
2021/01/23 07:52:35;;;;;;;4.73;4.33;;;;;;;2.48;99.72;94707.81;5074175;28;20468;-57
2021/01/23 07:55:01;;;;;;;4.90;4.10;;;;;;;2.48;99.68;94707.03;5087218;28;20968;-57
2021/01/23 07:57:26;;;;;;;3.93;3.63;;;;;;;2.69;99.23;94704.78;5093315;28;20432;-57
2021/01/23 07:59:52;;;;;;;5.00;4.53;;;;;;;2.50;99.80;94705.03;5094234;28;20466;-57
2021/01/23 08:02:17;;;;;;;6.10;5.37;;;;;;;2.74;99.05;94699.75;5096593;28;20172;-57
2021/01/23 08:04:51;;;;;;;5.30;3.67;;;;;;;2.87;97.76;94699.59;5097173;28;20190;-57
2021/01/23 08:07:25;;;;;;;4.60;4.07;;;;;;;2.87;97.43;94693.59;5097012;28;20417;-55
2021/01/23 08:10:06;;;;;;;5.53;3.83;;;;;;;2.96;97.40;94694.88;5097264;28;20482;-57
2021/01/23 08:12:33;;;;;;;6.10;4.63;;;;;;;3.09;97.44;94692.91;5096952;28;20811;-56
2021/01/23 08:14:58;;;;;;;4.30;3.90;;;;;;;3.17;96.93;94692.56;5097061;28;20975;-57
2021/01/23 08:17:43;;;;;;;8.27;3.70;;;;;;;3.10;95.75;94691.88;5089790;28;20447;-57
2021/01/23 08:20:14;;;;;;;4.30;3.90;;;;;;;3.19;95.59;94681.97;5077099;28;20185;-57
2021/01/23 08:22:59;;;;;;;4.03;3.20;;;;;;;3.08;96.26;94690.50;5086702;28;20419;-57
2021/01/23 08:25:29;;;;;;;5.37;4.27;;;;;;;2.89;96.54;94688.97;5097209;28;20419;-57
2021/01/23 08:27:58;;;;;;;4.73;4.00;;;;;;;2.96;97.44;94694.88;5097167;28;20446;-57
2021/01/23 08:30:25;;;;;;;6.13;3.90;;;;;;;3.10;97.01;94686.69;5096906;28;20437;-57
2021/01/23 08:32:51;;;;;;;16.20;8.90;;;;;;;3.03;96.81;94690.38;5096787;28;20458;-57
2021/01/23 08:35:17;;;;;;;11.33;6.63;;;;;;;2.89;98.23;94691.56;5096857;28;20429;-58
2021/01/23 08:37:44;;;;;;;8.60;6.10;;;;;;;2.96;97.57;94685.31;5089913;28;20495;-57
2021/01/23 08:40:10;;;;;;;5.00;4.53;;;;;;;3.15;96.70;94683.44;5085795;28;20454;-56
2021/01/23 08:42:36;;;;;;;5.30;3.93;;;;;;;3.20;96.37;94675.78;5084380;28;20936;-57
2021/01/23 08:45:03;;;;;;;4.00;3.70;;;;;;;3.30;96.41;94672.66;5076634;28;20419;-58
2021/01/23 08:47:28;;;;;;;4.43;4.03;;;;;;;3.26;95.71;94677.50;5058369;28;20203;-56
2021/01/23 08:49:53;;;;;;;5.13;4.60;;;;;;;3.28;95.96;94683.25;5083495;28;20457;-57
2021/01/23 08:52:19;;;;;;;5.30;4.80;;;;;;;3.28;95.89;94680.66;5097052;28;20350;-58
2021/01/23 08:54:44;;;;;;;4.70;4.00;;;;;;;3.50;95.30;94671.31;5096284;28;20652;-57
2021/01/23 08:57:10;;;;;;;10.87;4.60;;;;;;;3.44;95.07;94671.44;5088254;28;20196;-57
2021/01/23 08:59:35;;;;;;;5.70;5.20;;;;;;;3.67;94.65;94672.25;5076284;28;20203;-58
2021/01/23 09:02:00;;;;;;;5.13;4.57;;;;;;;3.58;93.81;94665.81;5076458;28;20185;-56
2021/01/23 09:04:26;;;;;;;7.20;4.97;;;;;;;3.64;93.82;94671.91;5095229;28;20184;-57
2021/01/23 09:06:51;;;;;;;5.13;4.37;;;;;;;3.63;93.79;94663.34;5096549;28;20670;-57
2021/01/23 09:09:16;;;;;;;5.10;3.93;;;;;;;3.44;94.02;94667.06;5096234;28;20197;-58
2021/01/23 09:11:43;;;;;;;5.77;5.17;;;;;;;3.52;94.63;94665.91;5076975;28;20254;-56
2021/01/23 09:14:08;;;;;;;4.80;4.37;;;;;;;3.51;94.98;94656.56;5096013;28;20271;-58
2021/01/23 09:16:33;;;;;;;5.50;4.20;;;;;;;3.55;94.42;94657.69;5095985;28;20495;-58
2021/01/23 09:18:59;;;;;;;7.57;4.57;;;;;;;3.48;94.56;94664.81;5079874;28;20675;-57
2021/01/23 09:21:25;;;;;;;4.30;3.90;;;;;;;3.51;94.89;94664.34;5072217;28;20183;-57
2021/01/23 09:23:50;;;;;;;5.77;4.57;;;;;;;3.57;94.68;94666.81;5072193;28;20233;-57
2021/01/23 09:26:16;;;;;;;4.27;3.87;;;;;;;3.81;94.75;94657.25;5072408;28;20491;-56
2021/01/23 09:28:41;;;;;;;6.23;4.87;;;;;;;3.75;94.16;94651.13;5072294;28;20195;-57
2021/01/23 09:31:07;;;;;;;6.33;3.90;;;;;;;3.71;93.56;94650.03;5078595;28;20223;-57
2021/01/23 09:33:33;;;;;;;4.20;3.90;;;;;;;3.71;94.21;94650.03;5081557;28;20197;-57
2021/01/23 09:35:59;;;;;;;4.50;3.80;;;;;;;3.84;93.72;94639.41;5077800;28;20180;-57
2021/01/23 09:38:25;;;;;;;3.70;3.13;;;;;;;3.73;93.66;94632.41;5092519;28;20427;-57
2021/01/23 09:40:50;;;;;;;3.30;3.10;;;;;;;4.18;91.60;94635.19;5091769;28;21003;-57
2021/01/23 09:43:16;;;;;;;3.63;3.33;;;;;;;3.89;92.09;94631.75;5091442;28;20175;-57
2021/01/23 09:45:41;;;;;;;4.03;3.63;;;;;;;4.13;91.83;94628.06;5091699;28;20223;-57
2021/01/23 09:48:07;;;;;;;3.67;3.37;;;;;;;3.96;92.44;94634.22;5083279;28;20271;-56
2021/01/23 09:50:33;;;;;;;4.43;3.70;;;;;;;4.05;92.41;94618.06;5071755;28;20648;-56
2021/01/23 09:52:58;;;;;;;21.37;13.63;;;;;;;4.12;92.46;94623.13;5071563;28;20463;-56
2021/01/23 09:55:25;;;;;;;3.70;3.37;;;;;;;4.28;92.25;94627.59;5071222;28;20408;-56
2021/01/23 09:57:50;;;;;;;5.70;4.30;;;;;;;4.34;91.85;94625.91;5071786;28;20615;-57
2021/01/23 10:00:17;;;;;;;3.97;3.67;;;;;;;4.14;92.07;94624.47;5088121;28;20510;-58
2021/01/23 10:02:42;;;;;;;4.13;3.53;;;;;;;3.90;93.07;94617.72;5084621;28;20181;-57
2021/01/23 10:05:08;;;;;;;4.60;3.73;;;;;;;4.09;92.84;94615.78;5073569;28;20411;-58
2021/01/23 10:07:34;;;;;;;4.03;3.73;;;;;;;3.84;94.49;94610.81;5091172;28;20213;-57
2021/01/23 10:09:59;;;;;;;6.63;4.10;;;;;;;3.87;94.08;94613.00;5091666;28;20447;-56
2021/01/23 10:12:28;;;;;;;3.70;3.40;;;;;;;3.99;93.10;94612.97;5091259;28;20201;-57
2021/01/23 10:14:54;;;;;;;5.47;3.40;;;;;;;3.86;93.53;94603.59;5091470;28;20189;-56
2021/01/23 10:17:19;;;;;;;4.50;3.30;;;;;;;3.88;93.00;94595.56;5089170;28;21208;-56
2021/01/23 10:19:45;;;;;;;3.40;3.10;;;;;;;3.87;93.91;94587.03;5091323;28;20415;-57
2021/01/23 10:22:10;;;;;;;4.73;3.40;;;;;;;3.77;93.94;94589.38;5086497;28;20229;-56
2021/01/23 10:24:36;;;;;;;5.00;3.87;;;;;;;3.90;93.61;94583.16;5070870;28;20164;-58
2021/01/23 10:27:01;;;;;;;9.60;6.00;;;;;;;3.92;93.02;94579.31;5075603;28;20593;-57
2021/01/23 10:29:27;;;;;;;3.20;3.00;;;;;;;3.56;94.39;94589.97;5090710;28;20654;-57
2021/01/23 10:31:52;;;;;;;3.77;3.07;;;;;;;3.69;94.49;94586.34;5090757;28;20184;-56
2021/01/23 10:34:18;;;;;;;11.47;6.10;;;;;;;3.71;95.42;94574.72;5091447;28;20654;-57
2021/01/23 10:36:43;;;;;;;3.20;2.70;;;;;;;3.73;94.46;94572.66;5091293;28;20173;-56
2021/01/23 10:39:08;;;;;;;3.43;2.80;;;;;;;3.53;95.94;94576.66;5091103;28;20215;-56
2021/01/23 10:41:34;;;;;;;7.00;5.43;;;;;;;3.67;95.92;94565.00;5088563;28;20184;-55
2021/01/23 10:43:59;;;;;;;3.53;3.23;;;;;;;3.59;95.87;94558.34;5083943;28;20170;-56
2021/01/23 10:46:25;;;;;;;4.67;3.27;;;;;;;3.61;97.02;94573.69;5091065;28;20181;-56
2021/01/23 10:48:50;;;;;;;3.37;3.07;;;;;;;3.69;95.46;94553.41;5090938;28;20192;-56
2021/01/23 10:51:15;;;;;;;3.80;2.87;;;;;;;3.74;95.64;94545.72;5091072;28;20254;-55
2021/01/23 10:53:41;;;;;;;3.10;2.90;;;;;;;3.95;94.87;94544.31;5090056;28;20262;-55
2021/01/23 10:56:06;;;;;;;3.30;2.70;;;;;;;4.21;94.12;94533.38;5090463;28;20604;-55
2021/01/23 10:58:33;;;;;;;3.30;2.90;;;;;;;4.14;93.46;94533.53;5088675;28;20214;-56
2021/01/23 11:00:58;;;;;;;2.97;2.37;;;;;;;4.23;92.90;94533.94;5090697;28;20166;-54
2021/01/23 11:03:24;;;;;;;4.70;2.90;;;;;;;4.26;91.96;94524.91;5090239;28;20431;-55
2021/01/23 11:05:51;;;;;;;3.00;2.70;;;;;;;4.46;91.62;94525.25;5082632;28;20182;-55
2021/01/23 11:08:17;;;;;;;2.47;2.27;;;;;;;4.22;92.33;94533.16;5090497;28;20246;-56
2021/01/23 11:10:42;;;;;;;4.40;2.80;;;;;;;4.16;93.13;94526.28;5090284;28;20417;-55
2021/01/23 11:13:07;;;;;;;3.40;3.03;;;;;;;3.97;95.13;94522.28;5090156;28;20273;-55
2021/01/23 11:15:33;;;;;;;4.27;3.87;;;;;;;4.12;94.10;94517.38;5090432;28;20172;-55
2021/01/23 11:17:58;;;;;;;4.60;3.10;;;;;;;4.17;93.61;94507.06;5086063;28;20250;-53
2021/01/23 11:20:24;;;;;;;4.83;4.43;;;;;;;4.49;93.14;94506.59;5069963;28;20193;-56
2021/01/23 11:22:50;;;;;;;2.90;2.70;;;;;;;4.72;92.11;94496.06;5086663;28;20201;-57
2021/01/23 11:25:16;;;;;;;2.83;2.63;;;;;;;4.99;89.20;94499.63;5071517;28;20185;-56
2021/01/23 11:27:42;;;;;;;6.10;3.20;;;;;;;5.43;87.86;94496.13;5089969;28;20442;-55
2021/01/23 11:30:10;;;;;;;6.13;4.67;;;;;;;6.14;84.17;94497.81;5089045;28;20274;-58
2021/01/23 11:35:11;;;;;;;5.10;3.40;;;;;;;6.89;80.43;94485.50;5454821;22;20526;-58
2021/01/23 11:37:36;;;;;;;3.03;2.50;;;;;;;6.19;81.24;94490.84;5009665;28;20436;-57
2021/01/23 11:40:04;;;;;;;4.03;3.27;;;;;;;5.89;83.27;94493.09;5006510;28;20189;-58
2021/01/23 11:42:29;;;;;;;10.00;5.10;;;;;;;5.89;83.53;94506.13;5007320;28;20176;-56
2021/01/23 11:44:55;;;;;;;4.77;3.33;;;;;;;5.82;82.93;94499.47;4989957;28;20448;-58
2021/01/23 11:47:21;;;;;;;4.07;2.60;;;;;;;5.77;82.83;94491.59;4989965;28;20185;-56
2021/01/23 11:49:47;;;;;;;2.23;2.03;;;;;;;6.02;82.13;94484.13;4997267;28;20222;-57